Quitman, Texas
Current Conditions -  °F | °C
As of 7:35 PM on Monday 22 Dec 2014 (Local Time) from KJDD Reporting Station
Clear Clear  
Wind Chill: 59°   Ceiling: Unl
Heat Index: 59°   Visibility: 10mi
Dew Point: 45°   Wind: 0mph
Humidity: 59%   Direction: NA
Pressure: 29.65"   Gusts: NA
Location:  32.8°N, 95.45°W
Report Text: KJDD 230135Z AUTO 00000KT 10SM CLR 15/07 A2965 RMK AO2
Loading
Personal Weather Stations






























Interactive Weather Map New forecast layout! Learn more

10-Day Weather Forecast

Advertisements
Track Severe Weather on mobile